Sublette, Kansas
Current Conditions -  °F | °C
As of 8:55 PM on Friday 21 Nov 2014 (Local Time) from KLBL Reporting Station
Clear Clear  
Wind Chill: 34°   Ceiling: Unl
Heat Index: 39°   Visibility: 10mi
Dew Point: 30°   Wind: 7mph
Humidity: 70%   Direction: 120°ESE
Pressure: 30.01"   Gusts: NA
Location:  37.48°N, 100.84°W
Report Text: KLBL 220255Z AUTO 12006KT 10SM CLR 04/M01 A3001 RMK AO1 52010
Loading
Personal Weather Stations






























Interactive Weather Map New forecast layout! Learn more

10-Day Weather Forecast

Advertisements
Track Severe Weather on mobile